Wichita, KS (67207)

4:00 PM CST on January 28, 2015 (GMT -0600)
Central and Rock | Change Station
CLOSE
Current Station
Personal Weather Station
Location: Wichita, KS
Elevation: 1375 ft
Nearby Weather Stations

Elev 1375 ft 37.69 °N, 97.24 °W | Updated 2 seconds ago

Partly Cloudy
Partly Cloudy
70.9 °F
Feels Like 75 °F
N
1.8
Wind Variable Wind from WSW
Gusts 2.5 mph

Today
High -- | Low -- °F
--% Chance of Precip.
Yesterday
High -- | Low -- °F
Precip. -- in
7:36 AM 5:48 PM
Waxing Gibbous, 68% visible
Pressure 29.81 in
Visibility 10.0 miles
Clouds Clear
Heat Index 75 °F
Dew Point 32 °F
Humidity 24%
Rainfall 0.00 in
Snow Depth Not available.
UV 1 out of 12
Pollen 2.20 out of 12
Air Quality Not available.
Flu Activity Not available.
METAR KIAB 282158Z AUTO 24011KT 10SM CLR 21/03 A2981 RMK AO2 SLP094 T02110030

More Conditions Fewer Conditions

Pressure 29.81 in
Visibility 10.0 miles
Clouds Clear
Heat Index 75 °F
Dew Point 32 °F
Humidity 24%
Rainfall 0.00 in
Snow Depth Not available.
UV 1 out of 12
Pollen 2.20 out of 12
Air Quality Not available.
Flu Activity Not available.
METAR KIAB 282158Z AUTO 24011KT 10SM CLR 21/03 A2981 RMK AO2 SLP094 T02110030

More Conditions Fewer Conditions

10-Day Weather Forecast

Almanac

Astronomy

Jan. 28, 2015 Rise Set
Actual Time
Civil Twilight
Nautical Twilight
Astronomical Twilight
Moon
Length of Visible Light
Length of Day
Tomorrow will be .
, % of the Moon is Illuminated

Today's Extremes

State Highs State Lows

Community

WunderPhotos

Upload Photos

1,791,276 photos uploaded!

WunderBlogs® & News

Nearby

Air Quality

  Air Quality AQ Index Pollutant
Not available.

Snow Depth

Station Depth Elevation

Earthquake Activity

City Distance Mag. Time & Date
Minimum magnitude displayed is 2.5.

Coastal Water Temperatures

Place Temperature

Nearby Weather Stations